sensor_id;sensor_type;location;lat;lon;timestamp;P1;durP1;ratioP1;P2;durP2;ratioP2
21107;SDS011;10712;52.944;9.098;2022-11-04T00:02:13;3.80;;;3.08;;
21107;SDS011;10712;52.944;9.098;2022-11-04T00:04:39;5.28;;;3.78;;
21107;SDS011;10712;52.944;9.098;2022-11-04T00:07:05;3.72;;;3.08;;
21107;SDS011;10712;52.944;9.098;2022-11-04T00:09:50;6.55;;;3.53;;
21107;SDS011;10712;52.944;9.098;2022-11-04T00:12:16;4.07;;;2.97;;
21107;SDS011;10712;52.944;9.098;2022-11-04T00:14:51;4.43;;;3.63;;
21107;SDS011;10712;52.944;9.098;2022-11-04T00:17:17;6.90;;;3.78;;
21107;SDS011;10712;52.944;9.098;2022-11-04T00:19:44;8.48;;;4.05;;
21107;SDS011;10712;52.944;9.098;2022-11-04T00:22:29;8.57;;;4.35;;
21107;SDS011;10712;52.944;9.098;2022-11-04T00:25:14;6.03;;;3.70;;
21107;SDS011;10712;52.944;9.098;2022-11-04T00:28:06;5.47;;;3.65;;
21107;SDS011;10712;52.944;9.098;2022-11-04T00:30:58;5.57;;;4.40;;
21107;SDS011;10712;52.944;9.098;2022-11-04T00:33:45;3.75;;;3.30;;
21107;SDS011;10712;52.944;9.098;2022-11-04T00:36:11;3.88;;;3.33;;
21107;SDS011;10712;52.944;9.098;2022-11-04T00:38:37;5.82;;;3.78;;
21107;SDS011;10712;52.944;9.098;2022-11-04T00:41:03;4.32;;;3.70;;
21107;SDS011;10712;52.944;9.098;2022-11-04T00:43:48;7.20;;;4.05;;
21107;SDS011;10712;52.944;9.098;2022-11-04T00:46:14;5.10;;;4.03;;
21107;SDS011;10712;52.944;9.098;2022-11-04T00:48:40;5.30;;;4.05;;
21107;SDS011;10712;52.944;9.098;2022-11-04T00:51:05;8.07;;;4.10;;
21107;SDS011;10712;52.944;9.098;2022-11-04T00:53:31;6.22;;;4.25;;
21107;SDS011;10712;52.944;9.098;2022-11-04T00:56:00;5.32;;;3.80;;
21107;SDS011;10712;52.944;9.098;2022-11-04T00:58:27;6.28;;;3.92;;
21107;SDS011;10712;52.944;9.098;2022-11-04T01:00:53;5.10;;;3.90;;
21107;SDS011;10712;52.944;9.098;2022-11-04T01:03:18;6.38;;;4.15;;
21107;SDS011;10712;52.944;9.098;2022-11-04T01:05:44;9.45;;;4.70;;
21107;SDS011;10712;52.944;9.098;2022-11-04T01:08:10;6.10;;;4.32;;
21107;SDS011;10712;52.944;9.098;2022-11-04T01:10:36;5.38;;;4.82;;
21107;SDS011;10712;52.944;9.098;2022-11-04T01:13:09;7.65;;;4.30;;
21107;SDS011;10712;52.944;9.098;2022-11-04T01:15:36;6.10;;;4.30;;
21107;SDS011;10712;52.944;9.098;2022-11-04T01:18:02;6.50;;;4.00;;
21107;SDS011;10712;52.944;9.098;2022-11-04T01:20:29;6.82;;;4.47;;
21107;SDS011;10712;52.944;9.098;2022-11-04T01:22:57;5.35;;;4.18;;
21107;SDS011;10712;52.944;9.098;2022-11-04T01:25:22;8.13;;;4.28;;
21107;SDS011;10712;52.944;9.098;2022-11-04T01:27:49;4.93;;;3.88;;
21107;SDS011;10712;52.944;9.098;2022-11-04T01:30:14;8.82;;;4.10;;
21107;SDS011;10712;52.944;9.098;2022-11-04T01:32:40;8.93;;;4.40;;
21107;SDS011;10712;52.944;9.098;2022-11-04T01:35:06;6.10;;;4.35;;
21107;SDS011;10712;52.944;9.098;2022-11-04T01:37:32;10.48;;;4.63;;
21107;SDS011;10712;52.944;9.098;2022-11-04T01:39:58;10.77;;;3.97;;
21107;SDS011;10712;52.944;9.098;2022-11-04T01:42:24;5.95;;;4.22;;
21107;SDS011;10712;52.944;9.098;2022-11-04T01:44:51;5.65;;;3.58;;
21107;SDS011;10712;52.944;9.098;2022-11-04T01:47:35;5.40;;;4.00;;
21107;SDS011;10712;52.944;9.098;2022-11-04T01:50:08;6.00;;;3.85;;
21107;SDS011;10712;52.944;9.098;2022-11-04T01:52:51;4.70;;;3.45;;
21107;SDS011;10712;52.944;9.098;2022-11-04T01:55:32;5.38;;;4.25;;
21107;SDS011;10712;52.944;9.098;2022-11-04T01:58:08;6.00;;;4.30;;
21107;SDS011;10712;52.944;9.098;2022-11-04T02:00:39;4.03;;;3.22;;
21107;SDS011;10712;52.944;9.098;2022-11-04T02:03:08;4.55;;;3.50;;
21107;SDS011;10712;52.944;9.098;2022-11-04T02:05:55;6.22;;;3.88;;
21107;SDS011;10712;52.944;9.098;2022-11-04T02:08:22;7.60;;;4.20;;
21107;SDS011;10712;52.944;9.098;2022-11-04T02:10:59;4.93;;;3.97;;
21107;SDS011;10712;52.944;9.098;2022-11-04T02:13:28;6.50;;;4.20;;
21107;SDS011;10712;52.944;9.098;2022-11-04T02:21:44;6.30;;;4.93;;
21107;SDS011;10712;52.944;9.098;2022-11-04T02:33:52;7.38;;;5.68;;
21107;SDS011;10712;52.944;9.098;2022-11-04T02:36:32;6.45;;;5.10;;
21107;SDS011;10712;52.944;9.098;2022-11-04T02:42:23;5.57;;;4.88;;
21107;SDS011;10712;52.944;9.098;2022-11-04T02:48:19;4.88;;;4.28;;
21107;SDS011;10712;52.944;9.098;2022-11-04T02:50:58;7.53;;;4.78;;
21107;SDS011;10712;52.944;9.098;2022-11-04T02:53:41;6.97;;;4.18;;
21107;SDS011;10712;52.944;9.098;2022-11-04T02:56:22;6.35;;;4.28;;
21107;SDS011;10712;52.944;9.098;2022-11-04T02:58:53;5.18;;;4.10;;
21107;SDS011;10712;52.944;9.098;2022-11-04T03:01:26;4.00;;;3.50;;
21107;SDS011;10712;52.944;9.098;2022-11-04T03:04:01;4.60;;;3.45;;
21107;SDS011;10712;52.944;9.098;2022-11-04T03:06:42;8.65;;;3.58;;
21107;SDS011;10712;52.944;9.098;2022-11-04T03:09:13;5.68;;;3.67;;
21107;SDS011;10712;52.944;9.098;2022-11-04T03:11:43;5.88;;;3.13;;
21107;SDS011;10712;52.944;9.098;2022-11-04T03:14:16;4.35;;;3.17;;
21107;SDS011;10712;52.944;9.098;2022-11-04T03:16:50;3.58;;;3.22;;
21107;SDS011;10712;52.944;9.098;2022-11-04T03:22:08;3.60;;;2.55;;
21107;SDS011;10712;52.944;9.098;2022-11-04T03:24:39;4.05;;;2.58;;
21107;SDS011;10712;52.944;9.098;2022-11-04T03:30:19;3.92;;;2.10;;
21107;SDS011;10712;52.944;9.098;2022-11-04T03:33:02;2.22;;;2.03;;
21107;SDS011;10712;52.944;9.098;2022-11-04T03:35:45;3.45;;;2.30;;
21107;SDS011;10712;52.944;9.098;2022-11-04T03:38:11;2.92;;;2.28;;
21107;SDS011;10712;52.944;9.098;2022-11-04T03:40:37;2.08;;;1.67;;
21107;SDS011;10712;52.944;9.098;2022-11-04T03:43:06;2.35;;;2.15;;
21107;SDS011;10712;52.944;9.098;2022-11-04T03:45:42;2.70;;;2.28;;
21107;SDS011;10712;52.944;9.098;2022-11-04T03:48:09;2.55;;;2.25;;
21107;SDS011;10712;52.944;9.098;2022-11-04T03:50:40;3.42;;;2.60;;
21107;SDS011;10712;52.944;9.098;2022-11-04T03:53:07;2.63;;;2.42;;
21107;SDS011;10712;52.944;9.098;2022-11-04T03:55:42;2.97;;;2.33;;
21107;SDS011;10712;52.944;9.098;2022-11-04T04:04:11;3.92;;;2.80;;
21107;SDS011;10712;52.944;9.098;2022-11-04T04:06:52;2.63;;;2.33;;
21107;SDS011;10712;52.944;9.098;2022-11-04T04:09:41;3.63;;;2.72;;
21107;SDS011;10712;52.944;9.098;2022-11-04T04:12:20;3.33;;;2.60;;
21107;SDS011;10712;52.944;9.098;2022-11-04T04:15:17;2.97;;;2.15;;
21107;SDS011;10712;52.944;9.098;2022-11-04T04:17:54;3.70;;;2.70;;
21107;SDS011;10712;52.944;9.098;2022-11-04T04:20:26;3.40;;;3.00;;
21107;SDS011;10712;52.944;9.098;2022-11-04T04:23:04;3.95;;;2.40;;
21107;SDS011;10712;52.944;9.098;2022-11-04T04:26:07;4.13;;;2.80;;
21107;SDS011;10712;52.944;9.098;2022-11-04T04:28:55;5.18;;;2.80;;
21107;SDS011;10712;52.944;9.098;2022-11-04T04:31:26;4.53;;;3.47;;
21107;SDS011;10712;52.944;9.098;2022-11-04T04:34:13;4.30;;;2.83;;
21107;SDS011;10712;52.944;9.098;2022-11-04T04:36:44;4.97;;;3.15;;
21107;SDS011;10712;52.944;9.098;2022-11-04T04:39:42;5.18;;;3.55;;
21107;SDS011;10712;52.944;9.098;2022-11-04T04:42:34;2.90;;;2.70;;
21107;SDS011;10712;52.944;9.098;2022-11-04T04:45:30;4.20;;;3.65;;
21107;SDS011;10712;52.944;9.098;2022-11-04T04:48:01;3.60;;;3.30;;
21107;SDS011;10712;52.944;9.098;2022-11-04T04:50:29;5.60;;;4.15;;
21107;SDS011;10712;52.944;9.098;2022-11-04T04:53:00;5.63;;;3.95;;
21107;SDS011;10712;52.944;9.098;2022-11-04T04:55:28;5.57;;;3.47;;
21107;SDS011;10712;52.944;9.098;2022-11-04T04:57:56;5.35;;;4.85;;
21107;SDS011;10712;52.944;9.098;2022-11-04T05:00:24;4.65;;;4.07;;
21107;SDS011;10712;52.944;9.098;2022-11-04T05:02:50;5.30;;;4.80;;
21107;SDS011;10712;52.944;9.098;2022-11-04T05:05:17;6.10;;;4.68;;
21107;SDS011;10712;52.944;9.098;2022-11-04T05:07:43;5.85;;;5.35;;
21107;SDS011;10712;52.944;9.098;2022-11-04T05:10:10;7.40;;;5.32;;
21107;SDS011;10712;52.944;9.098;2022-11-04T05:12:38;5.50;;;5.00;;
21107;SDS011;10712;52.944;9.098;2022-11-04T05:15:23;6.13;;;5.53;;
21107;SDS011;10712;52.944;9.098;2022-11-04T05:17:54;7.00;;;5.75;;
21107;SDS011;10712;52.944;9.098;2022-11-04T05:20:23;6.70;;;5.15;;
21107;SDS011;10712;52.944;9.098;2022-11-04T05:22:49;6.45;;;5.82;;
21107;SDS011;10712;52.944;9.098;2022-11-04T05:25:15;6.57;;;5.97;;
21107;SDS011;10712;52.944;9.098;2022-11-04T05:27:41;6.60;;;6.00;;
21107;SDS011;10712;52.944;9.098;2022-11-04T05:30:07;8.10;;;6.38;;
21107;SDS011;10712;52.944;9.098;2022-11-04T05:32:33;6.65;;;6.05;;
21107;SDS011;10712;52.944;9.098;2022-11-04T05:34:59;6.45;;;5.80;;
21107;SDS011;10712;52.944;9.098;2022-11-04T05:37:25;6.95;;;6.28;;
21107;SDS011;10712;52.944;9.098;2022-11-04T05:39:51;7.53;;;6.47;;
21107;SDS011;10712;52.944;9.098;2022-11-04T05:42:17;11.10;;;7.43;;
21107;SDS011;10712;52.944;9.098;2022-11-04T05:44:43;6.90;;;6.30;;
21107;SDS011;10712;52.944;9.098;2022-11-04T05:47:08;9.20;;;5.72;;
21107;SDS011;10712;52.944;9.098;2022-11-04T05:49:34;6.72;;;6.03;;
21107;SDS011;10712;52.944;9.098;2022-11-04T05:52:00;9.95;;;6.68;;
21107;SDS011;10712;52.944;9.098;2022-11-04T05:54:26;7.28;;;5.95;;
21107;SDS011;10712;52.944;9.098;2022-11-04T05:56:52;6.25;;;5.65;;
21107;SDS011;10712;52.944;9.098;2022-11-04T05:59:18;6.28;;;5.72;;
21107;SDS011;10712;52.944;9.098;2022-11-04T06:01:44;6.70;;;5.25;;
21107;SDS011;10712;52.944;9.098;2022-11-04T06:04:17;6.75;;;5.68;;
21107;SDS011;10712;52.944;9.098;2022-11-04T06:06:43;6.60;;;5.53;;
21107;SDS011;10712;52.944;9.098;2022-11-04T06:09:09;5.68;;;5.18;;
21107;SDS011;10712;52.944;9.098;2022-11-04T06:11:35;6.40;;;5.70;;
21107;SDS011;10712;52.944;9.098;2022-11-04T06:14:03;9.20;;;5.43;;
21107;SDS011;10712;52.944;9.098;2022-11-04T06:16:29;6.30;;;5.70;;
21107;SDS011;10712;52.944;9.098;2022-11-04T06:18:55;7.47;;;6.38;;
21107;SDS011;10712;52.944;9.098;2022-11-04T06:23:51;7.90;;;6.25;;
21107;SDS011;10712;52.944;9.098;2022-11-04T06:26:21;7.53;;;6.82;;
21107;SDS011;10712;52.944;9.098;2022-11-04T06:28:48;8.70;;;6.03;;
21107;SDS011;10712;52.944;9.098;2022-11-04T06:31:14;11.82;;;7.03;;
21107;SDS011;10712;52.944;9.098;2022-11-04T06:33:41;8.15;;;6.05;;
21107;SDS011;10712;52.944;9.098;2022-11-04T06:36:09;5.82;;;5.13;;
21107;SDS011;10712;52.944;9.098;2022-11-04T06:38:38;6.22;;;5.50;;
21107;SDS011;10712;52.944;9.098;2022-11-04T06:41:05;7.72;;;5.40;;
21107;SDS011;10712;52.944;9.098;2022-11-04T06:43:35;6.20;;;5.60;;
21107;SDS011;10712;52.944;9.098;2022-11-04T06:46:01;6.45;;;5.63;;
21107;SDS011;10712;52.944;9.098;2022-11-04T06:48:27;6.43;;;5.82;;
21107;SDS011;10712;52.944;9.098;2022-11-04T06:50:55;5.95;;;5.45;;
21107;SDS011;10712;52.944;9.098;2022-11-04T06:53:23;5.90;;;5.40;;
21107;SDS011;10712;52.944;9.098;2022-11-04T06:55:50;6.55;;;5.85;;
21107;SDS011;10712;52.944;9.098;2022-11-04T06:58:17;6.05;;;5.47;;
21107;SDS011;10712;52.944;9.098;2022-11-04T07:00:43;5.18;;;4.68;;
21107;SDS011;10712;52.944;9.098;2022-11-04T07:03:15;15.95;;;5.75;;
21107;SDS011;10712;52.944;9.098;2022-11-04T07:05:40;7.97;;;5.30;;
21107;SDS011;10712;52.944;9.098;2022-11-04T07:08:06;6.82;;;5.75;;
21107;SDS011;10712;52.944;9.098;2022-11-04T07:10:32;6.80;;;4.88;;
21107;SDS011;10712;52.944;9.098;2022-11-04T07:12:58;11.63;;;9.57;;
21107;SDS011;10712;52.944;9.098;2022-11-04T07:15:24;14.18;;;11.43;;
21107;SDS011;10712;52.944;9.098;2022-11-04T07:17:49;12.98;;;9.18;;
21107;SDS011;10712;52.944;9.098;2022-11-04T07:20:15;7.53;;;6.82;;
21107;SDS011;10712;52.944;9.098;2022-11-04T07:22:41;7.78;;;6.05;;
21107;SDS011;10712;52.944;9.098;2022-11-04T07:25:07;7.75;;;6.22;;
21107;SDS011;10712;52.944;9.098;2022-11-04T07:27:33;5.80;;;5.20;;
21107;SDS011;10712;52.944;9.098;2022-11-04T07:29:59;7.43;;;6.30;;
21107;SDS011;10712;52.944;9.098;2022-11-04T07:32:25;6.15;;;4.97;;
21107;SDS011;10712;52.944;9.098;2022-11-04T07:34:54;7.05;;;5.15;;
21107;SDS011;10712;52.944;9.098;2022-11-04T07:37:19;5.65;;;5.10;;
21107;SDS011;10712;52.944;9.098;2022-11-04T07:39:45;12.60;;;6.65;;
21107;SDS011;10712;52.944;9.098;2022-11-04T07:42:11;6.25;;;5.65;;
21107;SDS011;10712;52.944;9.098;2022-11-04T07:44:38;6.68;;;6.07;;
21107;SDS011;10712;52.944;9.098;2022-11-04T07:47:04;7.35;;;6.63;;
21107;SDS011;10712;52.944;9.098;2022-11-04T07:49:29;7.40;;;6.60;;
21107;SDS011;10712;52.944;9.098;2022-11-04T07:51:55;8.32;;;5.95;;
21107;SDS011;10712;52.944;9.098;2022-11-04T07:54:21;7.75;;;6.60;;
21107;SDS011;10712;52.944;9.098;2022-11-04T07:56:47;7.78;;;6.40;;
21107;SDS011;10712;52.944;9.098;2022-11-04T07:59:12;7.70;;;6.95;;
21107;SDS011;10712;52.944;9.098;2022-11-04T08:01:38;15.13;;;12.15;;
21107;SDS011;10712;52.944;9.098;2022-11-04T08:04:04;9.70;;;8.52;;
21107;SDS011;10712;52.944;9.098;2022-11-04T08:06:31;8.75;;;7.75;;
21107;SDS011;10712;52.944;9.098;2022-11-04T08:08:57;9.00;;;7.75;;
21107;SDS011;10712;52.944;9.098;2022-11-04T08:11:23;9.95;;;7.45;;
21107;SDS011;10712;52.944;9.098;2022-11-04T08:13:52;8.93;;;7.95;;
21107;SDS011;10712;52.944;9.098;2022-11-04T08:16:20;23.67;;;18.73;;
21107;SDS011;10712;52.944;9.098;2022-11-04T08:18:48;9.85;;;8.65;;
21107;SDS011;10712;52.944;9.098;2022-11-04T08:21:17;8.98;;;7.25;;
21107;SDS011;10712;52.944;9.098;2022-11-04T08:23:44;8.52;;;7.20;;
21107;SDS011;10712;52.944;9.098;2022-11-04T08:26:13;7.70;;;6.50;;
21107;SDS011;10712;52.944;9.098;2022-11-04T08:28:42;17.75;;;13.18;;
21107;SDS011;10712;52.944;9.098;2022-11-04T08:31:16;16.70;;;12.18;;
21107;SDS011;10712;52.944;9.098;2022-11-04T08:33:46;10.32;;;9.05;;
21107;SDS011;10712;52.944;9.098;2022-11-04T08:36:14;9.70;;;7.18;;
21107;SDS011;10712;52.944;9.098;2022-11-04T08:38:46;9.07;;;8.18;;
21107;SDS011;10712;52.944;9.098;2022-11-04T08:41:13;8.90;;;8.00;;
21107;SDS011;10712;52.944;9.098;2022-11-04T08:43:43;11.38;;;8.70;;
21107;SDS011;10712;52.944;9.098;2022-11-04T08:46:11;9.43;;;8.50;;
21107;SDS011;10712;52.944;9.098;2022-11-04T08:48:38;9.60;;;8.27;;
21107;SDS011;10712;52.944;9.098;2022-11-04T08:51:06;9.70;;;8.18;;
21107;SDS011;10712;52.944;9.098;2022-11-04T08:53:38;10.15;;;8.50;;
21107;SDS011;10712;52.944;9.098;2022-11-04T08:56:11;9.38;;;8.48;;
21107;SDS011;10712;52.944;9.098;2022-11-04T08:58:46;11.00;;;9.27;;
21107;SDS011;10712;52.944;9.098;2022-11-04T09:01:12;9.85;;;8.75;;
21107;SDS011;10712;52.944;9.098;2022-11-04T09:03:39;9.75;;;8.75;;
21107;SDS011;10712;52.944;9.098;2022-11-04T09:06:06;10.10;;;8.10;;
21107;SDS011;10712;52.944;9.098;2022-11-04T09:08:37;8.93;;;7.75;;
21107;SDS011;10712;52.944;9.098;2022-11-04T09:11:07;8.25;;;7.38;;
21107;SDS011;10712;52.944;9.098;2022-11-04T09:13:36;11.55;;;8.18;;
21107;SDS011;10712;52.944;9.098;2022-11-04T09:16:02;8.85;;;7.82;;
21107;SDS011;10712;52.944;9.098;2022-11-04T09:18:29;11.43;;;6.70;;
21107;SDS011;10712;52.944;9.098;2022-11-04T09:20:58;9.13;;;7.25;;
21107;SDS011;10712;52.944;9.098;2022-11-04T09:23:24;7.82;;;7.07;;
21107;SDS011;10712;52.944;9.098;2022-11-04T09:25:50;9.15;;;7.03;;
21107;SDS011;10712;52.944;9.098;2022-11-04T09:28:16;8.25;;;7.32;;
21107;SDS011;10712;52.944;9.098;2022-11-04T09:30:42;10.50;;;7.75;;
21107;SDS011;10712;52.944;9.098;2022-11-04T09:33:08;7.75;;;6.95;;
21107;SDS011;10712;52.944;9.098;2022-11-04T09:35:34;7.88;;;7.07;;
21107;SDS011;10712;52.944;9.098;2022-11-04T09:38:00;7.15;;;6.45;;
21107;SDS011;10712;52.944;9.098;2022-11-04T09:40:26;7.70;;;6.07;;
21107;SDS011;10712;52.944;9.098;2022-11-04T09:45:33;8.15;;;6.35;;
21107;SDS011;10712;52.944;9.098;2022-11-04T09:48:06;16.30;;;6.35;;
21107;SDS011;10712;52.944;9.098;2022-11-04T09:50:45;6.50;;;5.90;;
21107;SDS011;10712;52.944;9.098;2022-11-04T09:53:37;11.20;;;6.45;;
21107;SDS011;10712;52.944;9.098;2022-11-04T09:56:14;8.80;;;6.95;;
21107;SDS011;10712;52.944;9.098;2022-11-04T09:58:45;8.88;;;6.78;;
21107;SDS011;10712;52.944;9.098;2022-11-04T10:01:21;7.00;;;6.30;;
21107;SDS011;10712;52.944;9.098;2022-11-04T10:04:22;11.70;;;9.43;;
21107;SDS011;10712;52.944;9.098;2022-11-04T10:07:19;10.00;;;7.85;;
21107;SDS011;10712;52.944;9.098;2022-11-04T10:10:13;7.93;;;6.75;;
21107;SDS011;10712;52.944;9.098;2022-11-04T10:21:51;9.10;;;5.57;;
21107;SDS011;10712;52.944;9.098;2022-11-04T10:24:51;7.35;;;5.30;;
21107;SDS011;10712;52.944;9.098;2022-11-04T10:27:37;7.03;;;5.65;;
21107;SDS011;10712;52.944;9.098;2022-11-04T10:30:20;5.28;;;4.78;;
21107;SDS011;10712;52.944;9.098;2022-11-04T10:32:55;6.30;;;5.68;;
21107;SDS011;10712;52.944;9.098;2022-11-04T10:35:50;5.47;;;4.95;;
21107;SDS011;10712;52.944;9.098;2022-11-04T10:40:59;8.02;;;4.82;;
21107;SDS011;10712;52.944;9.098;2022-11-04T10:43:34;6.03;;;5.35;;
21107;SDS011;10712;52.944;9.098;2022-11-04T10:48:54;6.50;;;4.78;;
21107;SDS011;10712;52.944;9.098;2022-11-04T10:52:11;6.35;;;5.25;;
21107;SDS011;10712;52.944;9.098;2022-11-04T10:54:39;8.05;;;6.78;;
21107;SDS011;10712;52.944;9.098;2022-11-04T10:57:09;7.93;;;6.38;;
21107;SDS011;10712;52.944;9.098;2022-11-04T11:02:44;6.28;;;5.43;;
21107;SDS011;10712;52.944;9.098;2022-11-04T11:05:21;9.18;;;5.93;;
21107;SDS011;10712;52.944;9.098;2022-11-04T11:07:50;5.60;;;5.10;;
21107;SDS011;10712;52.944;9.098;2022-11-04T11:10:23;5.90;;;4.97;;
21107;SDS011;10712;52.944;9.098;2022-11-04T11:15:35;8.35;;;6.18;;
21107;SDS011;10712;52.944;9.098;2022-11-04T11:20:51;10.63;;;7.85;;
21107;SDS011;10712;52.944;9.098;2022-11-04T11:23:41;8.30;;;7.03;;
21107;SDS011;10712;52.944;9.098;2022-11-04T11:26:18;9.07;;;7.30;;
21107;SDS011;10712;52.944;9.098;2022-11-04T11:28:54;9.07;;;7.85;;
21107;SDS011;10712;52.944;9.098;2022-11-04T11:31:33;11.82;;;8.13;;
21107;SDS011;10712;52.944;9.098;2022-11-04T11:34:04;18.08;;;13.88;;
21107;SDS011;10712;52.944;9.098;2022-11-04T11:36:40;14.07;;;10.82;;
21107;SDS011;10712;52.944;9.098;2022-11-04T11:41:55;13.10;;;11.23;;
21107;SDS011;10712;52.944;9.098;2022-11-04T11:50:02;9.77;;;7.53;;
21107;SDS011;10712;52.944;9.098;2022-11-04T11:52:46;9.15;;;7.35;;
21107;SDS011;10712;52.944;9.098;2022-11-04T11:55:31;8.20;;;7.40;;
21107;SDS011;10712;52.944;9.098;2022-11-04T12:01:35;7.93;;;7.10;;
21107;SDS011;10712;52.944;9.098;2022-11-04T12:04:11;9.68;;;7.90;;
21107;SDS011;10712;52.944;9.098;2022-11-04T12:12:17;8.88;;;7.97;;
21107;SDS011;10712;52.944;9.098;2022-11-04T12:23:21;10.68;;;9.07;;
21107;SDS011;10712;52.944;9.098;2022-11-04T12:29:24;9.10;;;7.63;;
21107;SDS011;10712;52.944;9.098;2022-11-04T12:32:32;7.88;;;6.38;;
21107;SDS011;10712;52.944;9.098;2022-11-04T12:35:38;7.40;;;6.30;;
21107;SDS011;10712;52.944;9.098;2022-11-04T12:38:51;12.85;;;7.15;;
21107;SDS011;10712;52.944;9.098;2022-11-04T12:42:00;10.38;;;7.63;;
21107;SDS011;10712;52.944;9.098;2022-11-04T12:44:39;8.25;;;7.28;;
21107;SDS011;10712;52.944;9.098;2022-11-04T12:47:36;9.23;;;6.85;;
21107;SDS011;10712;52.944;9.098;2022-11-04T13:01:46;14.88;;;8.05;;
21107;SDS011;10712;52.944;9.098;2022-11-04T13:04:22;6.93;;;6.22;;
21107;SDS011;10712;52.944;9.098;2022-11-04T13:07:00;7.28;;;6.53;;
21107;SDS011;10712;52.944;9.098;2022-11-04T13:09:52;9.05;;;6.68;;
21107;SDS011;10712;52.944;9.098;2022-11-04T13:12:31;8.10;;;5.53;;
21107;SDS011;10712;52.944;9.098;2022-11-04T13:23:07;17.30;;;6.95;;
21107;SDS011;10712;52.944;9.098;2022-11-04T13:25:44;6.25;;;5.60;;
21107;SDS011;10712;52.944;9.098;2022-11-04T13:28:15;7.15;;;6.43;;
21107;SDS011;10712;52.944;9.098;2022-11-04T13:33:20;8.93;;;6.70;;
21107;SDS011;10712;52.944;9.098;2022-11-04T13:38:18;17.30;;;5.55;;
21107;SDS011;10712;52.944;9.098;2022-11-04T13:40:58;5.90;;;5.28;;
21107;SDS011;10712;52.944;9.098;2022-11-04T13:43:38;6.80;;;5.57;;
21107;SDS011;10712;52.944;9.098;2022-11-04T13:46:17;6.70;;;4.55;;
21107;SDS011;10712;52.944;9.098;2022-11-04T13:51:33;6.97;;;5.28;;
21107;SDS011;10712;52.944;9.098;2022-11-04T13:54:22;6.75;;;5.53;;
21107;SDS011;10712;52.944;9.098;2022-11-04T13:57:13;6.05;;;5.30;;
21107;SDS011;10712;52.944;9.098;2022-11-04T14:00:04;5.95;;;4.93;;
21107;SDS011;10712;52.944;9.098;2022-11-04T14:10:35;7.30;;;5.68;;
21107;SDS011;10712;52.944;9.098;2022-11-04T14:18:49;5.55;;;4.03;;
21107;SDS011;10712;52.944;9.098;2022-11-04T14:21:19;8.73;;;4.22;;
21107;SDS011;10712;52.944;9.098;2022-11-04T14:23:51;3.63;;;3.22;;
21107;SDS011;10712;52.944;9.098;2022-11-04T14:26:41;8.05;;;4.88;;
21107;SDS011;10712;52.944;9.098;2022-11-04T14:29:17;6.68;;;5.03;;
21107;SDS011;10712;52.944;9.098;2022-11-04T14:31:49;10.48;;;6.55;;
21107;SDS011;10712;52.944;9.098;2022-11-04T14:34:25;6.55;;;4.68;;
21107;SDS011;10712;52.944;9.098;2022-11-04T14:36:56;5.60;;;4.25;;
21107;SDS011;10712;52.944;9.098;2022-11-04T14:39:40;6.22;;;3.83;;
21107;SDS011;10712;52.944;9.098;2022-11-04T14:42:07;5.97;;;4.10;;
21107;SDS011;10712;52.944;9.098;2022-11-04T14:52:26;4.60;;;3.15;;
21107;SDS011;10712;52.944;9.098;2022-11-04T14:55:02;6.45;;;2.97;;
21107;SDS011;10712;52.944;9.098;2022-11-04T14:57:43;9.70;;;4.30;;
21107;SDS011;10712;52.944;9.098;2022-11-04T15:08:23;7.47;;;4.95;;
21107;SDS011;10712;52.944;9.098;2022-11-04T15:13:36;4.95;;;3.75;;
21107;SDS011;10712;52.944;9.098;2022-11-04T15:16:16;13.02;;;2.80;;
21107;SDS011;10712;52.944;9.098;2022-11-04T15:18:47;9.70;;;2.38;;
21107;SDS011;10712;52.944;9.098;2022-11-04T15:21:16;6.03;;;3.40;;
21107;SDS011;10712;52.944;9.098;2022-11-04T15:23:46;7.80;;;2.80;;
21107;SDS011;10712;52.944;9.098;2022-11-04T15:26:18;4.53;;;2.90;;
21107;SDS011;10712;52.944;9.098;2022-11-04T15:28:48;5.47;;;3.90;;
21107;SDS011;10712;52.944;9.098;2022-11-04T15:31:17;3.65;;;2.70;;
21107;SDS011;10712;52.944;9.098;2022-11-04T15:33:50;4.00;;;2.63;;
21107;SDS011;10712;52.944;9.098;2022-11-04T15:36:21;4.35;;;2.33;;
21107;SDS011;10712;52.944;9.098;2022-11-04T15:39:04;3.67;;;2.33;;
21107;SDS011;10712;52.944;9.098;2022-11-04T15:41:44;4.38;;;2.22;;
21107;SDS011;10712;52.944;9.098;2022-11-04T15:44:31;4.43;;;2.42;;
21107;SDS011;10712;52.944;9.098;2022-11-04T15:47:46;3.88;;;2.42;;
21107;SDS011;10712;52.944;9.098;2022-11-04T15:49:50;2.63;;;2.03;;
21107;SDS011;10712;52.944;9.098;2022-11-04T15:52:22;3.47;;;2.10;;
21107;SDS011;10712;52.944;9.098;2022-11-04T15:54:54;3.55;;;2.50;;
21107;SDS011;10712;52.944;9.098;2022-11-04T15:57:41;2.25;;;2.03;;
21107;SDS011;10712;52.944;9.098;2022-11-04T16:00:19;3.05;;;2.45;;
21107;SDS011;10712;52.944;9.098;2022-11-04T16:02:49;3.75;;;2.88;;
21107;SDS011;10712;52.944;9.098;2022-11-04T16:05:28;4.30;;;2.67;;
21107;SDS011;10712;52.944;9.098;2022-11-04T16:10:48;7.13;;;6.43;;
21107;SDS011;10712;52.944;9.098;2022-11-04T16:15:47;36.35;;;27.48;;
21107;SDS011;10712;52.944;9.098;2022-11-04T16:18:38;19.13;;;15.18;;
21107;SDS011;10712;52.944;9.098;2022-11-04T16:21:19;18.25;;;13.93;;
21107;SDS011;10712;52.944;9.098;2022-11-04T16:24:00;14.93;;;11.15;;
21107;SDS011;10712;52.944;9.098;2022-11-04T16:26:41;10.98;;;8.38;;
21107;SDS011;10712;52.944;9.098;2022-11-04T16:29:20;9.77;;;7.03;;
21107;SDS011;10712;52.944;9.098;2022-11-04T16:34:31;8.80;;;6.25;;
21107;SDS011;10712;52.944;9.098;2022-11-04T16:36:57;6.90;;;4.70;;
21107;SDS011;10712;52.944;9.098;2022-11-04T16:39:23;4.75;;;3.72;;
21107;SDS011;10712;52.944;9.098;2022-11-04T16:41:49;7.32;;;3.90;;
21107;SDS011;10712;52.944;9.098;2022-11-04T16:44:18;4.03;;;3.00;;
21107;SDS011;10712;52.944;9.098;2022-11-04T16:46:46;5.13;;;2.72;;
21107;SDS011;10712;52.944;9.098;2022-11-04T16:49:13;4.47;;;2.90;;
21107;SDS011;10712;52.944;9.098;2022-11-04T16:51:41;4.70;;;2.85;;
21107;SDS011;10712;52.944;9.098;2022-11-04T16:54:07;3.63;;;2.70;;
21107;SDS011;10712;52.944;9.098;2022-11-04T16:56:33;4.28;;;3.03;;
21107;SDS011;10712;52.944;9.098;2022-11-04T16:58:58;4.40;;;3.40;;
21107;SDS011;10712;52.944;9.098;2022-11-04T17:01:24;5.75;;;3.58;;
21107;SDS011;10712;52.944;9.098;2022-11-04T17:03:51;4.43;;;3.63;;
21107;SDS011;10712;52.944;9.098;2022-11-04T17:06:17;7.75;;;3.75;;
21107;SDS011;10712;52.944;9.098;2022-11-04T17:08:44;6.07;;;4.10;;
21107;SDS011;10712;52.944;9.098;2022-11-04T17:11:11;3.60;;;3.30;;
21107;SDS011;10712;52.944;9.098;2022-11-04T17:13:37;3.40;;;2.80;;
21107;SDS011;10712;52.944;9.098;2022-11-04T17:16:04;5.65;;;2.97;;
21107;SDS011;10712;52.944;9.098;2022-11-04T17:18:32;3.38;;;2.80;;
21107;SDS011;10712;52.944;9.098;2022-11-04T17:20:59;3.30;;;2.33;;
21107;SDS011;10712;52.944;9.098;2022-11-04T17:23:31;5.53;;;3.22;;
21107;SDS011;10712;52.944;9.098;2022-11-04T17:25:57;6.53;;;2.80;;
21107;SDS011;10712;52.944;9.098;2022-11-04T17:28:23;4.20;;;2.20;;
21107;SDS011;10712;52.944;9.098;2022-11-04T17:30:48;5.03;;;2.60;;
21107;SDS011;10712;52.944;9.098;2022-11-04T17:33:17;4.57;;;3.92;;
21107;SDS011;10712;52.944;9.098;2022-11-04T17:35:46;3.80;;;2.40;;
21107;SDS011;10712;52.944;9.098;2022-11-04T17:38:14;2.53;;;2.28;;
21107;SDS011;10712;52.944;9.098;2022-11-04T17:40:42;2.88;;;2.47;;
21107;SDS011;10712;52.944;9.098;2022-11-04T17:43:27;6.78;;;2.08;;
21107;SDS011;10712;52.944;9.098;2022-11-04T17:46:12;3.90;;;2.30;;
21107;SDS011;10712;52.944;9.098;2022-11-04T17:48:56;4.22;;;1.63;;
21107;SDS011;10712;52.944;9.098;2022-11-04T17:51:31;2.30;;;1.67;;
21107;SDS011;10712;52.944;9.098;2022-11-04T17:53:57;6.38;;;1.88;;
21107;SDS011;10712;52.944;9.098;2022-11-04T17:56:23;3.70;;;1.95;;
21107;SDS011;10712;52.944;9.098;2022-11-04T17:58:49;3.65;;;1.52;;